sensor_id;sensor_type;location;lat;lon;timestamp;temperature;humidity
16970;DHT22;8601;48.718;8.992;2024-03-02T00:01:30;6.20;99.90
16970;DHT22;8601;48.718;8.992;2024-03-02T00:03:58;6.20;99.90
16970;DHT22;8601;48.718;8.992;2024-03-02T00:06:25;6.10;99.90
16970;DHT22;8601;48.718;8.992;2024-03-02T00:08:52;6.10;99.90
16970;DHT22;8601;48.718;8.992;2024-03-02T00:11:23;6.10;99.90
16970;DHT22;8601;48.718;8.992;2024-03-02T00:13:52;6.10;99.90
16970;DHT22;8601;48.718;8.992;2024-03-02T00:16:20;6.10;99.90
16970;DHT22;8601;48.718;8.992;2024-03-02T00:18:47;6.00;99.90
16970;DHT22;8601;48.718;8.992;2024-03-02T00:21:14;5.90;99.90
16970;DHT22;8601;48.718;8.992;2024-03-02T00:23:44;6.00;99.90
16970;DHT22;8601;48.718;8.992;2024-03-02T00:26:11;6.00;99.90
16970;DHT22;8601;48.718;8.992;2024-03-02T00:28:39;5.90;99.90
16970;DHT22;8601;48.718;8.992;2024-03-02T00:31:08;5.90;99.90
16970;DHT22;8601;48.718;8.992;2024-03-02T00:33:46;5.90;99.90
16970;DHT22;8601;48.718;8.992;2024-03-02T00:36:14;5.90;99.90
16970;DHT22;8601;48.718;8.992;2024-03-02T00:38:46;5.90;99.90
16970;DHT22;8601;48.718;8.992;2024-03-02T00:41:17;5.90;99.90
16970;DHT22;8601;48.718;8.992;2024-03-02T00:43:56;5.90;99.90
16970;DHT22;8601;48.718;8.992;2024-03-02T00:46:28;5.90;99.90
16970;DHT22;8601;48.718;8.992;2024-03-02T00:48:59;5.90;99.90
16970;DHT22;8601;48.718;8.992;2024-03-02T00:51:29;6.00;99.90
16970;DHT22;8601;48.718;8.992;2024-03-02T00:53:58;6.00;99.90
16970;DHT22;8601;48.718;8.992;2024-03-02T00:56:27;6.00;99.90
16970;DHT22;8601;48.718;8.992;2024-03-02T00:58:53;6.10;99.90
16970;DHT22;8601;48.718;8.992;2024-03-02T01:01:20;6.10;99.90
16970;DHT22;8601;48.718;8.992;2024-03-02T01:03:48;6.10;99.90
16970;DHT22;8601;48.718;8.992;2024-03-02T01:06:17;6.10;99.90
16970;DHT22;8601;48.718;8.992;2024-03-02T01:08:43;6.10;99.90
16970;DHT22;8601;48.718;8.992;2024-03-02T01:11:11;6.10;99.90
16970;DHT22;8601;48.718;8.992;2024-03-02T01:13:38;6.10;99.90
16970;DHT22;8601;48.718;8.992;2024-03-02T01:16:05;6.10;99.90
16970;DHT22;8601;48.718;8.992;2024-03-02T01:18:32;6.10;99.90
16970;DHT22;8601;48.718;8.992;2024-03-02T01:20:59;6.10;99.90
16970;DHT22;8601;48.718;8.992;2024-03-02T01:23:28;6.10;99.90
16970;DHT22;8601;48.718;8.992;2024-03-02T01:25:55;6.00;99.90
16970;DHT22;8601;48.718;8.992;2024-03-02T01:28:23;6.10;99.90
16970;DHT22;8601;48.718;8.992;2024-03-02T01:30:50;6.10;99.90
16970;DHT22;8601;48.718;8.992;2024-03-02T01:33:18;6.60;99.90
16970;DHT22;8601;48.718;8.992;2024-03-02T01:35:45;6.80;99.90
16970;DHT22;8601;48.718;8.992;2024-03-02T01:38:12;6.60;99.90
16970;DHT22;8601;48.718;8.992;2024-03-02T01:40:42;6.30;99.90
16970;DHT22;8601;48.718;8.992;2024-03-02T01:43:10;6.20;99.90
16970;DHT22;8601;48.718;8.992;2024-03-02T01:45:38;6.20;99.90
16970;DHT22;8601;48.718;8.992;2024-03-02T01:48:06;6.10;99.90
16970;DHT22;8601;48.718;8.992;2024-03-02T01:50:34;6.10;99.90
16970;DHT22;8601;48.718;8.992;2024-03-02T01:53:01;6.00;99.90
16970;DHT22;8601;48.718;8.992;2024-03-02T01:55:28;6.00;99.90
16970;DHT22;8601;48.718;8.992;2024-03-02T01:57:58;6.00;99.90
16970;DHT22;8601;48.718;8.992;2024-03-02T02:00:25;6.00;99.90
16970;DHT22;8601;48.718;8.992;2024-03-02T02:02:52;6.00;99.90
16970;DHT22;8601;48.718;8.992;2024-03-02T02:05:20;6.00;99.90
16970;DHT22;8601;48.718;8.992;2024-03-02T02:07:47;6.00;99.90
16970;DHT22;8601;48.718;8.992;2024-03-02T02:13:04;6.00;99.90
16970;DHT22;8601;48.718;8.992;2024-03-02T02:15:31;6.00;99.90
16970;DHT22;8601;48.718;8.992;2024-03-02T02:18:01;5.90;99.90
16970;DHT22;8601;48.718;8.992;2024-03-02T02:20:29;5.80;99.90
16970;DHT22;8601;48.718;8.992;2024-03-02T02:22:58;5.80;99.90
16970;DHT22;8601;48.718;8.992;2024-03-02T02:25:25;5.70;99.90
16970;DHT22;8601;48.718;8.992;2024-03-02T02:27:52;5.60;99.90
16970;DHT22;8601;48.718;8.992;2024-03-02T02:30:20;5.50;99.90
16970;DHT22;8601;48.718;8.992;2024-03-02T02:32:47;5.50;99.90
16970;DHT22;8601;48.718;8.992;2024-03-02T02:35:22;5.40;99.90
16970;DHT22;8601;48.718;8.992;2024-03-02T02:37:50;5.30;99.90
16970;DHT22;8601;48.718;8.992;2024-03-02T02:40:18;5.30;99.90
16970;DHT22;8601;48.718;8.992;2024-03-02T02:42:45;5.40;99.90
16970;DHT22;8601;48.718;8.992;2024-03-02T02:45:12;5.40;99.90
16970;DHT22;8601;48.718;8.992;2024-03-02T02:47:40;5.30;99.90
16970;DHT22;8601;48.718;8.992;2024-03-02T02:50:13;5.30;99.90
16970;DHT22;8601;48.718;8.992;2024-03-02T02:52:41;5.30;99.90
16970;DHT22;8601;48.718;8.992;2024-03-02T02:55:10;5.30;99.90
16970;DHT22;8601;48.718;8.992;2024-03-02T02:57:40;5.30;99.90
16970;DHT22;8601;48.718;8.992;2024-03-02T03:00:08;5.30;99.90
16970;DHT22;8601;48.718;8.992;2024-03-02T03:02:40;5.20;99.90
16970;DHT22;8601;48.718;8.992;2024-03-02T03:05:08;5.20;99.90
16970;DHT22;8601;48.718;8.992;2024-03-02T03:07:35;5.20;99.90
16970;DHT22;8601;48.718;8.992;2024-03-02T03:10:02;5.20;99.90
16970;DHT22;8601;48.718;8.992;2024-03-02T03:12:29;5.10;99.90
16970;DHT22;8601;48.718;8.992;2024-03-02T03:14:58;5.20;99.90
16970;DHT22;8601;48.718;8.992;2024-03-02T03:17:25;5.10;99.90
16970;DHT22;8601;48.718;8.992;2024-03-02T03:19:52;5.00;99.90
16970;DHT22;8601;48.718;8.992;2024-03-02T03:22:20;4.90;99.90
16970;DHT22;8601;48.718;8.992;2024-03-02T03:24:48;5.00;99.90
16970;DHT22;8601;48.718;8.992;2024-03-02T03:27:15;4.90;99.90
16970;DHT22;8601;48.718;8.992;2024-03-02T03:29:41;4.90;99.90
16970;DHT22;8601;48.718;8.992;2024-03-02T03:32:09;4.90;99.90
16970;DHT22;8601;48.718;8.992;2024-03-02T03:34:36;4.90;99.90
16970;DHT22;8601;48.718;8.992;2024-03-02T03:37:03;4.90;99.90
16970;DHT22;8601;48.718;8.992;2024-03-02T03:39:34;4.90;99.90
16970;DHT22;8601;48.718;8.992;2024-03-02T03:42:01;4.90;99.90
16970;DHT22;8601;48.718;8.992;2024-03-02T03:44:27;4.90;99.90
16970;DHT22;8601;48.718;8.992;2024-03-02T03:46:54;4.90;99.90
16970;DHT22;8601;48.718;8.992;2024-03-02T03:49:24;4.90;99.90
16970;DHT22;8601;48.718;8.992;2024-03-02T03:51:51;4.90;99.90
16970;DHT22;8601;48.718;8.992;2024-03-02T03:54:19;4.90;99.90
16970;DHT22;8601;48.718;8.992;2024-03-02T03:56:47;4.90;99.90
16970;DHT22;8601;48.718;8.992;2024-03-02T03:59:14;4.90;99.90
16970;DHT22;8601;48.718;8.992;2024-03-02T04:01:41;4.90;99.90
16970;DHT22;8601;48.718;8.992;2024-03-02T04:04:08;4.90;99.90
16970;DHT22;8601;48.718;8.992;2024-03-02T04:06:36;4.90;99.90
16970;DHT22;8601;48.718;8.992;2024-03-02T04:09:02;4.90;99.90
16970;DHT22;8601;48.718;8.992;2024-03-02T04:11:30;4.90;99.90
16970;DHT22;8601;48.718;8.992;2024-03-02T04:13:57;4.80;99.90
16970;DHT22;8601;48.718;8.992;2024-03-02T04:16:24;4.80;99.90
16970;DHT22;8601;48.718;8.992;2024-03-02T04:18:58;4.80;99.90
16970;DHT22;8601;48.718;8.992;2024-03-02T04:21:25;4.80;99.90
16970;DHT22;8601;48.718;8.992;2024-03-02T04:23:53;4.70;99.90
16970;DHT22;8601;48.718;8.992;2024-03-02T04:26:23;4.70;99.90
16970;DHT22;8601;48.718;8.992;2024-03-02T04:28:50;4.70;99.90
16970;DHT22;8601;48.718;8.992;2024-03-02T04:31:17;4.80;99.90
16970;DHT22;8601;48.718;8.992;2024-03-02T04:33:52;4.70;99.90
16970;DHT22;8601;48.718;8.992;2024-03-02T04:36:21;4.70;99.90
16970;DHT22;8601;48.718;8.992;2024-03-02T04:38:49;4.70;99.90
16970;DHT22;8601;48.718;8.992;2024-03-02T04:41:17;4.70;99.90
16970;DHT22;8601;48.718;8.992;2024-03-02T04:43:44;4.80;99.90
16970;DHT22;8601;48.718;8.992;2024-03-02T04:46:16;4.80;99.90
16970;DHT22;8601;48.718;8.992;2024-03-02T04:48:43;4.80;99.90
16970;DHT22;8601;48.718;8.992;2024-03-02T04:51:10;4.80;99.90
16970;DHT22;8601;48.718;8.992;2024-03-02T04:53:37;4.80;99.90
16970;DHT22;8601;48.718;8.992;2024-03-02T04:56:04;4.70;99.90
16970;DHT22;8601;48.718;8.992;2024-03-02T04:58:54;4.60;99.90
16970;DHT22;8601;48.718;8.992;2024-03-02T05:01:22;4.60;99.90
16970;DHT22;8601;48.718;8.992;2024-03-02T05:03:50;4.60;99.90
16970;DHT22;8601;48.718;8.992;2024-03-02T05:06:17;4.60;99.90
16970;DHT22;8601;48.718;8.992;2024-03-02T05:08:44;4.60;99.90
16970;DHT22;8601;48.718;8.992;2024-03-02T05:11:11;4.50;99.90
16970;DHT22;8601;48.718;8.992;2024-03-02T05:14:02;4.50;99.90
16970;DHT22;8601;48.718;8.992;2024-03-02T05:16:29;4.40;99.90
16970;DHT22;8601;48.718;8.992;2024-03-02T05:18:55;4.40;99.90
16970;DHT22;8601;48.718;8.992;2024-03-02T05:21:22;4.40;99.90
16970;DHT22;8601;48.718;8.992;2024-03-02T05:23:49;4.50;99.90
16970;DHT22;8601;48.718;8.992;2024-03-02T05:26:16;4.50;99.90
16970;DHT22;8601;48.718;8.992;2024-03-02T05:28:43;4.50;99.90
16970;DHT22;8601;48.718;8.992;2024-03-02T05:31:11;4.50;99.90
16970;DHT22;8601;48.718;8.992;2024-03-02T05:33:41;4.50;99.90
16970;DHT22;8601;48.718;8.992;2024-03-02T05:36:08;4.50;99.90
16970;DHT22;8601;48.718;8.992;2024-03-02T05:38:35;4.50;99.90
16970;DHT22;8601;48.718;8.992;2024-03-02T05:41:02;4.50;99.90
16970;DHT22;8601;48.718;8.992;2024-03-02T05:43:34;4.50;99.90
16970;DHT22;8601;48.718;8.992;2024-03-02T05:46:02;4.50;99.90
16970;DHT22;8601;48.718;8.992;2024-03-02T05:48:30;4.50;99.90
16970;DHT22;8601;48.718;8.992;2024-03-02T05:50:56;4.50;99.90
16970;DHT22;8601;48.718;8.992;2024-03-02T05:53:23;4.30;99.90
16970;DHT22;8601;48.718;8.992;2024-03-02T05:55:52;4.20;99.90
16970;DHT22;8601;48.718;8.992;2024-03-02T05:58:21;4.20;99.90
16970;DHT22;8601;48.718;8.992;2024-03-02T06:00:58;4.20;99.90
16970;DHT22;8601;48.718;8.992;2024-03-02T06:03:25;4.20;99.90
16970;DHT22;8601;48.718;8.992;2024-03-02T06:05:53;4.30;99.90
16970;DHT22;8601;48.718;8.992;2024-03-02T06:08:20;4.40;99.90
16970;DHT22;8601;48.718;8.992;2024-03-02T06:10:46;4.40;99.90
16970;DHT22;8601;48.718;8.992;2024-03-02T06:13:13;4.50;99.90
16970;DHT22;8601;48.718;8.992;2024-03-02T06:15:40;4.50;99.90
16970;DHT22;8601;48.718;8.992;2024-03-02T06:18:07;4.60;99.90
16970;DHT22;8601;48.718;8.992;2024-03-02T06:20:34;4.60;99.90
16970;DHT22;8601;48.718;8.992;2024-03-02T06:23:02;4.60;99.90
16970;DHT22;8601;48.718;8.992;2024-03-02T06:25:29;4.60;99.90
16970;DHT22;8601;48.718;8.992;2024-03-02T06:27:56;4.70;99.90
16970;DHT22;8601;48.718;8.992;2024-03-02T06:30:23;4.70;99.90
16970;DHT22;8601;48.718;8.992;2024-03-02T06:32:49;4.70;99.90
16970;DHT22;8601;48.718;8.992;2024-03-02T06:35:16;4.70;99.90
16970;DHT22;8601;48.718;8.992;2024-03-02T06:37:43;4.70;99.90
16970;DHT22;8601;48.718;8.992;2024-03-02T06:40:11;4.70;99.90
16970;DHT22;8601;48.718;8.992;2024-03-02T06:42:38;4.70;99.90
16970;DHT22;8601;48.718;8.992;2024-03-02T06:45:06;4.80;99.90
16970;DHT22;8601;48.718;8.992;2024-03-02T06:47:33;4.70;99.90
16970;DHT22;8601;48.718;8.992;2024-03-02T06:50:00;4.80;99.90
16970;DHT22;8601;48.718;8.992;2024-03-02T06:52:27;4.80;99.90
16970;DHT22;8601;48.718;8.992;2024-03-02T06:54:54;4.80;99.90
16970;DHT22;8601;48.718;8.992;2024-03-02T06:57:22;4.80;99.90
16970;DHT22;8601;48.718;8.992;2024-03-02T06:59:50;4.80;99.90
16970;DHT22;8601;48.718;8.992;2024-03-02T07:02:19;4.80;99.90
16970;DHT22;8601;48.718;8.992;2024-03-02T07:04:46;4.80;99.90
16970;DHT22;8601;48.718;8.992;2024-03-02T07:07:13;4.80;99.90
16970;DHT22;8601;48.718;8.992;2024-03-02T07:09:40;4.90;99.90
16970;DHT22;8601;48.718;8.992;2024-03-02T07:12:07;4.90;99.90
16970;DHT22;8601;48.718;8.992;2024-03-02T07:14:36;4.90;99.90
16970;DHT22;8601;48.718;8.992;2024-03-02T07:17:36;5.00;99.90
16970;DHT22;8601;48.718;8.992;2024-03-02T07:20:04;5.00;99.90
16970;DHT22;8601;48.718;8.992;2024-03-02T07:22:32;5.00;99.90
16970;DHT22;8601;48.718;8.992;2024-03-02T07:24:59;5.10;99.90
16970;DHT22;8601;48.718;8.992;2024-03-02T07:27:25;5.10;99.90
16970;DHT22;8601;48.718;8.992;2024-03-02T07:29:54;5.10;99.90
16970;DHT22;8601;48.718;8.992;2024-03-02T07:32:21;5.10;99.90
16970;DHT22;8601;48.718;8.992;2024-03-02T07:34:50;5.00;99.90
16970;DHT22;8601;48.718;8.992;2024-03-02T07:37:17;4.90;99.90
16970;DHT22;8601;48.718;8.992;2024-03-02T07:39:44;4.90;99.90
16970;DHT22;8601;48.718;8.992;2024-03-02T07:42:11;4.90;99.90
16970;DHT22;8601;48.718;8.992;2024-03-02T07:44:38;4.90;99.90
16970;DHT22;8601;48.718;8.992;2024-03-02T07:47:07;4.80;99.90
16970;DHT22;8601;48.718;8.992;2024-03-02T07:49:34;4.80;99.90
16970;DHT22;8601;48.718;8.992;2024-03-02T07:52:02;4.80;99.90
16970;DHT22;8601;48.718;8.992;2024-03-02T07:54:29;4.70;99.90
16970;DHT22;8601;48.718;8.992;2024-03-02T07:56:56;4.70;99.90
16970;DHT22;8601;48.718;8.992;2024-03-02T07:59:24;4.70;99.90
16970;DHT22;8601;48.718;8.992;2024-03-02T08:01:51;5.10;99.90
16970;DHT22;8601;48.718;8.992;2024-03-02T08:04:20;5.20;99.90
16970;DHT22;8601;48.718;8.992;2024-03-02T08:06:48;5.40;99.90
16970;DHT22;8601;48.718;8.992;2024-03-02T08:09:15;5.50;99.90
16970;DHT22;8601;48.718;8.992;2024-03-02T08:11:41;5.50;99.90
16970;DHT22;8601;48.718;8.992;2024-03-02T08:14:08;5.60;99.90
16970;DHT22;8601;48.718;8.992;2024-03-02T08:16:35;5.70;99.90
16970;DHT22;8601;48.718;8.992;2024-03-02T08:19:02;5.70;99.90
16970;DHT22;8601;48.718;8.992;2024-03-02T08:21:30;5.80;99.90
16970;DHT22;8601;48.718;8.992;2024-03-02T08:23:58;5.90;99.90
16970;DHT22;8601;48.718;8.992;2024-03-02T08:26:24;5.90;99.90
16970;DHT22;8601;48.718;8.992;2024-03-02T08:28:54;6.00;99.90
16970;DHT22;8601;48.718;8.992;2024-03-02T08:31:21;6.00;99.90
16970;DHT22;8601;48.718;8.992;2024-03-02T08:33:48;6.10;99.90
16970;DHT22;8601;48.718;8.992;2024-03-02T08:36:14;6.10;99.90
16970;DHT22;8601;48.718;8.992;2024-03-02T08:38:43;6.20;99.90
16970;DHT22;8601;48.718;8.992;2024-03-02T08:41:10;6.30;99.90
16970;DHT22;8601;48.718;8.992;2024-03-02T08:43:40;6.40;99.90
16970;DHT22;8601;48.718;8.992;2024-03-02T08:46:08;6.40;99.90
16970;DHT22;8601;48.718;8.992;2024-03-02T08:48:35;6.40;99.90
16970;DHT22;8601;48.718;8.992;2024-03-02T08:51:02;6.50;99.90
16970;DHT22;8601;48.718;8.992;2024-03-02T08:53:31;6.50;99.90
16970;DHT22;8601;48.718;8.992;2024-03-02T08:55:59;6.60;99.90
16970;DHT22;8601;48.718;8.992;2024-03-02T08:58:26;6.60;99.90
16970;DHT22;8601;48.718;8.992;2024-03-02T09:00:53;6.70;99.90
16970;DHT22;8601;48.718;8.992;2024-03-02T09:03:21;6.80;99.90
16970;DHT22;8601;48.718;8.992;2024-03-02T09:05:48;6.90;99.90
16970;DHT22;8601;48.718;8.992;2024-03-02T09:08:15;7.00;99.90
16970;DHT22;8601;48.718;8.992;2024-03-02T09:10:41;7.10;99.90
16970;DHT22;8601;48.718;8.992;2024-03-02T09:13:10;7.30;99.90
16970;DHT22;8601;48.718;8.992;2024-03-02T09:15:37;7.50;99.90
16970;DHT22;8601;48.718;8.992;2024-03-02T09:18:05;7.70;99.90
16970;DHT22;8601;48.718;8.992;2024-03-02T09:20:32;7.90;99.90
16970;DHT22;8601;48.718;8.992;2024-03-02T09:23:00;8.30;99.90
16970;DHT22;8601;48.718;8.992;2024-03-02T09:25:26;8.50;99.90
16970;DHT22;8601;48.718;8.992;2024-03-02T09:27:55;8.90;99.90
16970;DHT22;8601;48.718;8.992;2024-03-02T09:30:23;9.20;99.90
16970;DHT22;8601;48.718;8.992;2024-03-02T09:32:50;9.60;99.90
16970;DHT22;8601;48.718;8.992;2024-03-02T09:35:18;9.80;99.90
16970;DHT22;8601;48.718;8.992;2024-03-02T09:37:45;10.20;99.90
16970;DHT22;8601;48.718;8.992;2024-03-02T09:40:13;10.20;99.90
16970;DHT22;8601;48.718;8.992;2024-03-02T09:42:41;10.60;99.90
16970;DHT22;8601;48.718;8.992;2024-03-02T09:45:09;10.90;99.90
16970;DHT22;8601;48.718;8.992;2024-03-02T09:47:38;11.30;99.90
16970;DHT22;8601;48.718;8.992;2024-03-02T09:50:06;11.30;99.90
16970;DHT22;8601;48.718;8.992;2024-03-02T09:52:33;11.70;99.90
16970;DHT22;8601;48.718;8.992;2024-03-02T09:55:02;12.00;99.90
16970;DHT22;8601;48.718;8.992;2024-03-02T09:57:31;12.30;98.10
16970;DHT22;8601;48.718;8.992;2024-03-02T09:59:57;12.00;95.90
16970;DHT22;8601;48.718;8.992;2024-03-02T10:02:24;11.80;95.20
16970;DHT22;8601;48.718;8.992;2024-03-02T10:04:52;11.70;94.90
16970;DHT22;8601;48.718;8.992;2024-03-02T10:07:19;12.10;96.20
16970;DHT22;8601;48.718;8.992;2024-03-02T10:09:47;12.30;95.30
16970;DHT22;8601;48.718;8.992;2024-03-02T10:12:16;12.40;95.10
16970;DHT22;8601;48.718;8.992;2024-03-02T10:14:43;12.50;93.60
16970;DHT22;8601;48.718;8.992;2024-03-02T10:17:11;12.50;92.90
16970;DHT22;8601;48.718;8.992;2024-03-02T10:19:39;12.60;93.70
16970;DHT22;8601;48.718;8.992;2024-03-02T10:22:09;12.80;94.10
16970;DHT22;8601;48.718;8.992;2024-03-02T10:24:37;12.90;93.30
16970;DHT22;8601;48.718;8.992;2024-03-02T10:27:07;13.10;93.20
16970;DHT22;8601;48.718;8.992;2024-03-02T10:29:37;13.30;91.80
16970;DHT22;8601;48.718;8.992;2024-03-02T10:32:05;13.30;90.70
16970;DHT22;8601;48.718;8.992;2024-03-02T10:34:33;13.30;89.10
16970;DHT22;8601;48.718;8.992;2024-03-02T10:37:04;13.50;90.30
16970;DHT22;8601;48.718;8.992;2024-03-02T10:40:05;13.80;89.60
16970;DHT22;8601;48.718;8.992;2024-03-02T10:42:34;13.90;87.80
16970;DHT22;8601;48.718;8.992;2024-03-02T10:45:02;13.60;83.60
16970;DHT22;8601;48.718;8.992;2024-03-02T10:47:30;13.70;85.00
16970;DHT22;8601;48.718;8.992;2024-03-02T10:49:59;13.60;83.60
16970;DHT22;8601;48.718;8.992;2024-03-02T10:52:28;13.50;83.90
16970;DHT22;8601;48.718;8.992;2024-03-02T10:54:54;13.60;83.60
16970;DHT22;8601;48.718;8.992;2024-03-02T10:57:27;13.70;86.20
16970;DHT22;8601;48.718;8.992;2024-03-02T10:59:57;14.10;86.30
16970;DHT22;8601;48.718;8.992;2024-03-02T11:02:29;14.30;85.10
16970;DHT22;8601;48.718;8.992;2024-03-02T11:04:56;14.50;84.80
16970;DHT22;8601;48.718;8.992;2024-03-02T11:07:26;14.50;87.30
16970;DHT22;8601;48.718;8.992;2024-03-02T11:10:00;14.50;80.30
16970;DHT22;8601;48.718;8.992;2024-03-02T11:12:38;14.50;80.40
16970;DHT22;8601;48.718;8.992;2024-03-02T11:15:10;14.40;82.00
16970;DHT22;8601;48.718;8.992;2024-03-02T11:17:39;14.60;78.40
16970;DHT22;8601;48.718;8.992;2024-03-02T11:20:08;14.90;81.10
16970;DHT22;8601;48.718;8.992;2024-03-02T11:22:36;14.90;79.90
16970;DHT22;8601;48.718;8.992;2024-03-02T11:25:04;14.70;77.70
16970;DHT22;8601;48.718;8.992;2024-03-02T11:28:04;14.60;76.50
16970;DHT22;8601;48.718;8.992;2024-03-02T11:30:52;14.40;74.90
16970;DHT22;8601;48.718;8.992;2024-03-02T11:33:26;14.50;80.10
16970;DHT22;8601;48.718;8.992;2024-03-02T11:35:56;14.60;78.70
16970;DHT22;8601;48.718;8.992;2024-03-02T11:38:22;14.60;75.70
16970;DHT22;8601;48.718;8.992;2024-03-02T11:40:50;14.50;73.60
16970;DHT22;8601;48.718;8.992;2024-03-02T11:43:20;14.50;77.70
16970;DHT22;8601;48.718;8.992;2024-03-02T11:45:46;14.40;75.50
16970;DHT22;8601;48.718;8.992;2024-03-02T11:48:14;14.50;75.30
16970;DHT22;8601;48.718;8.992;2024-03-02T11:50:43;14.60;74.70
16970;DHT22;8601;48.718;8.992;2024-03-02T11:53:13;14.60;76.80
16970;DHT22;8601;48.718;8.992;2024-03-02T11:55:39;14.60;74.50
16970;DHT22;8601;48.718;8.992;2024-03-02T11:58:07;14.80;75.70
16970;DHT22;8601;48.718;8.992;2024-03-02T12:00:35;14.80;74.80
16970;DHT22;8601;48.718;8.992;2024-03-02T12:03:04;14.90;74.50
16970;DHT22;8601;48.718;8.992;2024-03-02T12:05:33;14.90;72.80
16970;DHT22;8601;48.718;8.992;2024-03-02T12:08:01;15.00;73.10
16970;DHT22;8601;48.718;8.992;2024-03-02T12:10:29;15.20;73.50
16970;DHT22;8601;48.718;8.992;2024-03-02T12:12:57;15.30;72.90
16970;DHT22;8601;48.718;8.992;2024-03-02T12:15:25;15.30;69.30
16970;DHT22;8601;48.718;8.992;2024-03-02T12:17:54;15.20;71.00
16970;DHT22;8601;48.718;8.992;2024-03-02T12:20:23;15.20;71.70
16970;DHT22;8601;48.718;8.992;2024-03-02T12:22:52;15.20;69.70
16970;DHT22;8601;48.718;8.992;2024-03-02T12:25:20;15.30;71.20
16970;DHT22;8601;48.718;8.992;2024-03-02T12:27:47;15.20;72.30
16970;DHT22;8601;48.718;8.992;2024-03-02T12:30:16;15.00;73.00
16970;DHT22;8601;48.718;8.992;2024-03-02T12:32:44;15.20;74.80
16970;DHT22;8601;48.718;8.992;2024-03-02T12:35:12;15.30;71.20
16970;DHT22;8601;48.718;8.992;2024-03-02T12:37:45;15.50;70.80
16970;DHT22;8601;48.718;8.992;2024-03-02T12:40:12;15.60;70.80
16970;DHT22;8601;48.718;8.992;2024-03-02T12:42:40;15.60;68.90
16970;DHT22;8601;48.718;8.992;2024-03-02T12:45:08;15.50;67.80
16970;DHT22;8601;48.718;8.992;2024-03-02T12:47:35;15.60;69.40
16970;DHT22;8601;48.718;8.992;2024-03-02T12:50:03;15.60;68.60
16970;DHT22;8601;48.718;8.992;2024-03-02T12:52:31;15.40;69.40
16970;DHT22;8601;48.718;8.992;2024-03-02T12:55:01;15.40;68.40
16970;DHT22;8601;48.718;8.992;2024-03-02T12:57:30;15.50;70.90
16970;DHT22;8601;48.718;8.992;2024-03-02T12:59:58;15.40;70.50
16970;DHT22;8601;48.718;8.992;2024-03-02T13:02:28;15.50;66.90
16970;DHT22;8601;48.718;8.992;2024-03-02T13:04:56;15.60;66.00
16970;DHT22;8601;48.718;8.992;2024-03-02T13:07:24;15.60;66.20
16970;DHT22;8601;48.718;8.992;2024-03-02T13:09:53;15.60;67.70
16970;DHT22;8601;48.718;8.992;2024-03-02T13:12:23;15.30;69.00
16970;DHT22;8601;48.718;8.992;2024-03-02T13:14:52;15.50;69.20
16970;DHT22;8601;48.718;8.992;2024-03-02T13:17:20;15.40;68.20
16970;DHT22;8601;48.718;8.992;2024-03-02T13:19:53;15.70;68.30
16970;DHT22;8601;48.718;8.992;2024-03-02T13:22:21;15.80;68.60
16970;DHT22;8601;48.718;8.992;2024-03-02T13:24:49;15.80;66.60
16970;DHT22;8601;48.718;8.992;2024-03-02T13:27:17;15.70;65.50
16970;DHT22;8601;48.718;8.992;2024-03-02T13:29:45;15.50;64.40
16970;DHT22;8601;48.718;8.992;2024-03-02T13:32:13;15.40;64.40
16970;DHT22;8601;48.718;8.992;2024-03-02T13:34:40;15.10;64.20
16970;DHT22;8601;48.718;8.992;2024-03-02T13:37:06;14.90;67.00
16970;DHT22;8601;48.718;8.992;2024-03-02T13:39:34;14.90;65.90
16970;DHT22;8601;48.718;8.992;2024-03-02T13:42:06;14.70;67.60
16970;DHT22;8601;48.718;8.992;2024-03-02T13:44:36;14.70;66.70
16970;DHT22;8601;48.718;8.992;2024-03-02T13:47:04;14.60;68.10
16970;DHT22;8601;48.718;8.992;2024-03-02T13:49:32;14.40;66.20
16970;DHT22;8601;48.718;8.992;2024-03-02T13:52:03;14.10;66.20
16970;DHT22;8601;48.718;8.992;2024-03-02T13:54:37;13.90;66.60
16970;DHT22;8601;48.718;8.992;2024-03-02T13:57:05;13.90;68.90
16970;DHT22;8601;48.718;8.992;2024-03-02T13:59:32;13.90;69.10
16970;DHT22;8601;48.718;8.992;2024-03-02T14:02:00;13.90;69.70
16970;DHT22;8601;48.718;8.992;2024-03-02T14:04:30;13.80;68.50
16970;DHT22;8601;48.718;8.992;2024-03-02T14:06:57;13.90;70.30
16970;DHT22;8601;48.718;8.992;2024-03-02T14:09:24;13.90;69.10
16970;DHT22;8601;48.718;8.992;2024-03-02T14:11:52;13.90;68.20
16970;DHT22;8601;48.718;8.992;2024-03-02T14:14:19;14.20;71.00
16970;DHT22;8601;48.718;8.992;2024-03-02T14:16:46;14.40;68.80
16970;DHT22;8601;48.718;8.992;2024-03-02T14:19:14;14.40;68.50
16970;DHT22;8601;48.718;8.992;2024-03-02T14:21:41;14.40;68.60
16970;DHT22;8601;48.718;8.992;2024-03-02T14:24:08;14.40;68.00
16970;DHT22;8601;48.718;8.992;2024-03-02T14:26:36;14.60;67.30
16970;DHT22;8601;48.718;8.992;2024-03-02T14:29:03;14.60;67.60
16970;DHT22;8601;48.718;8.992;2024-03-02T14:31:30;14.80;67.60
16970;DHT22;8601;48.718;8.992;2024-03-02T14:33:57;14.90;66.30
16970;DHT22;8601;48.718;8.992;2024-03-02T14:36:26;15.00;68.50
16970;DHT22;8601;48.718;8.992;2024-03-02T14:38:53;15.00;65.10
16970;DHT22;8601;48.718;8.992;2024-03-02T14:41:20;15.10;67.40
16970;DHT22;8601;48.718;8.992;2024-03-02T14:43:49;15.10;66.20
16970;DHT22;8601;48.718;8.992;2024-03-02T14:46:17;15.20;66.90
16970;DHT22;8601;48.718;8.992;2024-03-02T14:48:44;15.20;68.20
16970;DHT22;8601;48.718;8.992;2024-03-02T14:51:13;15.10;65.50
16970;DHT22;8601;48.718;8.992;2024-03-02T14:53:41;15.10;66.00
16970;DHT22;8601;48.718;8.992;2024-03-02T14:56:08;15.20;65.70
16970;DHT22;8601;48.718;8.992;2024-03-02T14:58:35;15.20;65.70
16970;DHT22;8601;48.718;8.992;2024-03-02T15:01:03;15.20;65.10
16970;DHT22;8601;48.718;8.992;2024-03-02T15:03:31;15.20;66.00
16970;DHT22;8601;48.718;8.992;2024-03-02T15:05:58;15.10;66.40
16970;DHT22;8601;48.718;8.992;2024-03-02T15:08:25;15.00;65.40
16970;DHT22;8601;48.718;8.992;2024-03-02T15:10:53;15.00;66.00
16970;DHT22;8601;48.718;8.992;2024-03-02T15:13:21;14.90;68.40
16970;DHT22;8601;48.718;8.992;2024-03-02T15:15:48;14.80;66.40
16970;DHT22;8601;48.718;8.992;2024-03-02T15:18:16;14.70;68.10
16970;DHT22;8601;48.718;8.992;2024-03-02T15:20:44;14.50;69.10
16970;DHT22;8601;48.718;8.992;2024-03-02T15:23:11;14.50;67.20
16970;DHT22;8601;48.718;8.992;2024-03-02T15:25:37;14.40;67.40
16970;DHT22;8601;48.718;8.992;2024-03-02T15:28:07;14.40;69.30
16970;DHT22;8601;48.718;8.992;2024-03-02T15:30:33;14.30;68.90
16970;DHT22;8601;48.718;8.992;2024-03-02T15:33:00;14.20;67.00
16970;DHT22;8601;48.718;8.992;2024-03-02T15:35:27;14.20;68.30
16970;DHT22;8601;48.718;8.992;2024-03-02T15:37:54;14.10;67.70
16970;DHT22;8601;48.718;8.992;2024-03-02T15:40:21;14.10;69.50
16970;DHT22;8601;48.718;8.992;2024-03-02T15:42:48;14.00;70.20
16970;DHT22;8601;48.718;8.992;2024-03-02T15:45:16;14.00;70.80
16970;DHT22;8601;48.718;8.992;2024-03-02T15:47:43;13.90;69.60
16970;DHT22;8601;48.718;8.992;2024-03-02T15:50:10;13.90;69.30
16970;DHT22;8601;48.718;8.992;2024-03-02T15:52:38;13.90;71.40
16970;DHT22;8601;48.718;8.992;2024-03-02T15:55:05;13.80;70.40
16970;DHT22;8601;48.718;8.992;2024-03-02T15:57:32;13.80;70.80
16970;DHT22;8601;48.718;8.992;2024-03-02T16:00:00;13.80;70.20
16970;DHT22;8601;48.718;8.992;2024-03-02T16:02:28;13.60;68.80
16970;DHT22;8601;48.718;8.992;2024-03-02T16:04:55;13.50;68.30